sensor_id;sensor_type;location;lat;lon;timestamp;temperature;humidity
76291;DHT22;65100;46.884;17.410;2024-01-16T00:02:10;1.95;84.45
76291;DHT22;65100;46.884;17.410;2024-01-16T00:04:38;1.97;84.50
76291;DHT22;65100;46.884;17.410;2024-01-16T00:07:06;1.61;85.00
76291;DHT22;65100;46.884;17.410;2024-01-16T00:09:34;1.17;84.42
76291;DHT22;65100;46.884;17.410;2024-01-16T00:12:01;1.00;84.94
76291;DHT22;65100;46.884;17.410;2024-01-16T00:14:27;1.00;84.72
76291;DHT22;65100;46.884;17.410;2024-01-16T00:16:53;1.19;82.88
76291;DHT22;65100;46.884;17.410;2024-01-16T00:19:18;0.87;85.04
76291;DHT22;65100;46.884;17.410;2024-01-16T00:21:44;0.92;85.56
76291;DHT22;65100;46.884;17.410;2024-01-16T00:24:13;0.75;84.36
76291;DHT22;65100;46.884;17.410;2024-01-16T00:26:39;0.63;85.07
76291;DHT22;65100;46.884;17.410;2024-01-16T00:29:04;0.58;83.84
76291;DHT22;65100;46.884;17.410;2024-01-16T00:31:30;0.77;82.27
76291;DHT22;65100;46.884;17.410;2024-01-16T00:33:55;0.83;79.86
76291;DHT22;65100;46.884;17.410;2024-01-16T00:36:21;0.29;81.90
76291;DHT22;65100;46.884;17.410;2024-01-16T00:38:46;-0.05;83.79
76291;DHT22;65100;46.884;17.410;2024-01-16T00:41:12;0.53;81.55
76291;DHT22;65100;46.884;17.410;2024-01-16T00:43:40;0.39;80.13
76291;DHT22;65100;46.884;17.410;2024-01-16T00:46:06;-0.12;83.75
76291;DHT22;65100;46.884;17.410;2024-01-16T00:48:31;-0.01;84.23
76291;DHT22;65100;46.884;17.410;2024-01-16T00:50:57;0.21;79.31
76291;DHT22;65100;46.884;17.410;2024-01-16T00:53:22;0.11;79.26
76291;DHT22;65100;46.884;17.410;2024-01-16T00:55:47;-0.13;81.17
76291;DHT22;65100;46.884;17.410;2024-01-16T00:58:13;0.02;82.98
76291;DHT22;65100;46.884;17.410;2024-01-16T01:00:38;-0.43;84.68
76291;DHT22;65100;46.884;17.410;2024-01-16T01:03:04;-0.22;84.97
76291;DHT22;65100;46.884;17.410;2024-01-16T01:05:30;-0.16;81.85
76291;DHT22;65100;46.884;17.410;2024-01-16T01:07:56;-0.46;83.36
76291;DHT22;65100;46.884;17.410;2024-01-16T01:10:21;-0.48;84.93
76291;DHT22;65100;46.884;17.410;2024-01-16T01:12:47;-0.20;83.83
76291;DHT22;65100;46.884;17.410;2024-01-16T01:15:12;-0.54;86.68
76291;DHT22;65100;46.884;17.410;2024-01-16T01:17:39;-0.43;84.15
76291;DHT22;65100;46.884;17.410;2024-01-16T01:20:06;-0.41;83.28
76291;DHT22;65100;46.884;17.410;2024-01-16T01:22:32;-0.44;85.71
76291;DHT22;65100;46.884;17.410;2024-01-16T01:24:57;-0.43;88.70
76291;DHT22;65100;46.884;17.410;2024-01-16T01:27:23;0.21;84.72
76291;DHT22;65100;46.884;17.410;2024-01-16T01:29:48;-0.26;80.90
76291;DHT22;65100;46.884;17.410;2024-01-16T01:32:13;-0.53;84.23
76291;DHT22;65100;46.884;17.410;2024-01-16T01:34:41;-0.40;84.99
76291;DHT22;65100;46.884;17.410;2024-01-16T01:37:07;-0.32;86.23
76291;DHT22;65100;46.884;17.410;2024-01-16T01:39:32;-0.15;83.80
76291;DHT22;65100;46.884;17.410;2024-01-16T01:41:58;-0.22;81.75
76291;DHT22;65100;46.884;17.410;2024-01-16T01:44:23;-0.28;80.54
76291;DHT22;65100;46.884;17.410;2024-01-16T01:46:50;-0.54;83.60
76291;DHT22;65100;46.884;17.410;2024-01-16T01:49:16;-1.07;86.15
76291;DHT22;65100;46.884;17.410;2024-01-16T01:51:42;-0.95;84.35
76291;DHT22;65100;46.884;17.410;2024-01-16T01:54:08;-1.39;85.35
76291;DHT22;65100;46.884;17.410;2024-01-16T01:56:35;-0.70;84.10
76291;DHT22;65100;46.884;17.410;2024-01-16T01:59:01;-0.69;81.84
76291;DHT22;65100;46.884;17.410;2024-01-16T02:01:28;-0.73;85.87
76291;DHT22;65100;46.884;17.410;2024-01-16T02:03:55;-0.64;86.26
76291;DHT22;65100;46.884;17.410;2024-01-16T02:06:22;-0.77;85.69
76291;DHT22;65100;46.884;17.410;2024-01-16T02:08:48;-0.66;86.21
76291;DHT22;65100;46.884;17.410;2024-01-16T02:11:14;-0.60;87.88
76291;DHT22;65100;46.884;17.410;2024-01-16T02:13:40;-0.56;82.20
76291;DHT22;65100;46.884;17.410;2024-01-16T02:16:17;-0.84;79.72
76291;DHT22;65100;46.884;17.410;2024-01-16T02:18:43;-1.07;80.80
76291;DHT22;65100;46.884;17.410;2024-01-16T02:21:08;-1.35;80.91
76291;DHT22;65100;46.884;17.410;2024-01-16T02:23:34;-1.76;82.38
76291;DHT22;65100;46.884;17.410;2024-01-16T02:26:01;-1.34;81.06
76291;DHT22;65100;46.884;17.410;2024-01-16T02:28:27;-1.24;80.24
76291;DHT22;65100;46.884;17.410;2024-01-16T02:30:53;-1.54;79.81
76291;DHT22;65100;46.884;17.410;2024-01-16T02:33:18;-1.51;80.56
76291;DHT22;65100;46.884;17.410;2024-01-16T02:35:44;-1.45;79.86
76291;DHT22;65100;46.884;17.410;2024-01-16T02:38:09;-1.58;80.39
76291;DHT22;65100;46.884;17.410;2024-01-16T02:40:34;-1.59;79.91
76291;DHT22;65100;46.884;17.410;2024-01-16T02:43:00;-1.55;79.63
76291;DHT22;65100;46.884;17.410;2024-01-16T02:45:26;-1.63;80.75
76291;DHT22;65100;46.884;17.410;2024-01-16T02:47:51;-1.72;83.82
76291;DHT22;65100;46.884;17.410;2024-01-16T02:50:17;-1.76;87.21
76291;DHT22;65100;46.884;17.410;2024-01-16T02:52:42;-1.65;88.72
76291;DHT22;65100;46.884;17.410;2024-01-16T02:55:08;-1.90;87.29
76291;DHT22;65100;46.884;17.410;2024-01-16T02:57:33;-1.61;86.70
76291;DHT22;65100;46.884;17.410;2024-01-16T02:59:59;-1.58;84.58
76291;DHT22;65100;46.884;17.410;2024-01-16T03:02:24;-1.49;82.73
76291;DHT22;65100;46.884;17.410;2024-01-16T03:04:50;-1.75;81.85
76291;DHT22;65100;46.884;17.410;2024-01-16T03:07:16;-1.75;81.90
76291;DHT22;65100;46.884;17.410;2024-01-16T03:09:41;-1.66;82.18
76291;DHT22;65100;46.884;17.410;2024-01-16T03:12:07;-1.75;80.54
76291;DHT22;65100;46.884;17.410;2024-01-16T03:14:32;-1.97;79.60
76291;DHT22;65100;46.884;17.410;2024-01-16T03:17:02;-1.99;79.16
76291;DHT22;65100;46.884;17.410;2024-01-16T03:19:28;-2.34;78.46
76291;DHT22;65100;46.884;17.410;2024-01-16T03:21:54;-2.85;82.22
76291;DHT22;65100;46.884;17.410;2024-01-16T03:24:19;-2.53;81.97
76291;DHT22;65100;46.884;17.410;2024-01-16T03:26:45;-2.10;78.78
76291;DHT22;65100;46.884;17.410;2024-01-16T03:29:11;-2.14;78.05
76291;DHT22;65100;46.884;17.410;2024-01-16T03:31:36;-2.23;78.82
76291;DHT22;65100;46.884;17.410;2024-01-16T03:34:02;-2.30;80.68
76291;DHT22;65100;46.884;17.410;2024-01-16T03:36:27;-2.58;83.20
76291;DHT22;65100;46.884;17.410;2024-01-16T03:38:53;-2.50;84.34
76291;DHT22;65100;46.884;17.410;2024-01-16T03:41:18;-2.46;87.05
76291;DHT22;65100;46.884;17.410;2024-01-16T03:43:44;-2.64;84.63
76291;DHT22;65100;46.884;17.410;2024-01-16T03:46:12;-2.16;80.89
76291;DHT22;65100;46.884;17.410;2024-01-16T03:48:37;-2.61;79.85
76291;DHT22;65100;46.884;17.410;2024-01-16T03:51:03;-3.02;83.01
76291;DHT22;65100;46.884;17.410;2024-01-16T03:53:28;-3.20;84.29
76291;DHT22;65100;46.884;17.410;2024-01-16T03:55:54;-2.91;85.00
76291;DHT22;65100;46.884;17.410;2024-01-16T03:58:19;-2.51;81.06
76291;DHT22;65100;46.884;17.410;2024-01-16T04:00:45;-3.05;83.64
76291;DHT22;65100;46.884;17.410;2024-01-16T04:03:11;-2.65;83.13
76291;DHT22;65100;46.884;17.410;2024-01-16T04:05:38;-2.39;80.20
76291;DHT22;65100;46.884;17.410;2024-01-16T04:08:45;-2.34;78.55
76291;DHT22;65100;46.884;17.410;2024-01-16T04:11:12;-2.29;78.19
76291;DHT22;65100;46.884;17.410;2024-01-16T04:13:38;-2.67;80.08
76291;DHT22;65100;46.884;17.410;2024-01-16T04:16:04;-2.54;82.14
76291;DHT22;65100;46.884;17.410;2024-01-16T04:18:35;-2.60;80.09
76291;DHT22;65100;46.884;17.410;2024-01-16T04:21:00;-3.13;79.97
76291;DHT22;65100;46.884;17.410;2024-01-16T04:23:26;-3.09;80.80
76291;DHT22;65100;46.884;17.410;2024-01-16T04:25:51;-2.68;78.84
76291;DHT22;65100;46.884;17.410;2024-01-16T04:28:17;-2.65;79.48
76291;DHT22;65100;46.884;17.410;2024-01-16T04:30:42;-2.68;81.44
76291;DHT22;65100;46.884;17.410;2024-01-16T04:33:07;-2.75;83.67
76291;DHT22;65100;46.884;17.410;2024-01-16T04:35:33;-2.63;85.38
76291;DHT22;65100;46.884;17.410;2024-01-16T04:37:59;-2.70;85.58
76291;DHT22;65100;46.884;17.410;2024-01-16T04:40:24;-2.84;85.98
76291;DHT22;65100;46.884;17.410;2024-01-16T04:42:50;-3.02;85.71
76291;DHT22;65100;46.884;17.410;2024-01-16T04:45:15;-2.73;85.07
76291;DHT22;65100;46.884;17.410;2024-01-16T04:47:40;-2.67;84.67
76291;DHT22;65100;46.884;17.410;2024-01-16T04:50:06;-2.70;83.96
76291;DHT22;65100;46.884;17.410;2024-01-16T04:52:33;-2.85;83.30
76291;DHT22;65100;46.884;17.410;2024-01-16T04:54:58;-2.84;84.39
76291;DHT22;65100;46.884;17.410;2024-01-16T04:57:24;-2.87;84.39
76291;DHT22;65100;46.884;17.410;2024-01-16T04:59:49;-2.89;86.25
76291;DHT22;65100;46.884;17.410;2024-01-16T05:02:15;-3.12;85.32
76291;DHT22;65100;46.884;17.410;2024-01-16T05:04:42;-2.95;86.40
76291;DHT22;65100;46.884;17.410;2024-01-16T05:07:08;-3.01;86.25
76291;DHT22;65100;46.884;17.410;2024-01-16T05:09:33;-2.56;84.40
76291;DHT22;65100;46.884;17.410;2024-01-16T05:11:59;-2.63;83.42
76291;DHT22;65100;46.884;17.410;2024-01-16T05:14:24;-2.73;82.95
76291;DHT22;65100;46.884;17.410;2024-01-16T05:16:51;-2.60;83.22
76291;DHT22;65100;46.884;17.410;2024-01-16T05:19:16;-2.71;82.32
76291;DHT22;65100;46.884;17.410;2024-01-16T05:21:42;-2.61;82.63
76291;DHT22;65100;46.884;17.410;2024-01-16T05:24:08;-2.61;81.54
76291;DHT22;65100;46.884;17.410;2024-01-16T05:26:33;-2.61;80.87
76291;DHT22;65100;46.884;17.410;2024-01-16T05:28:59;-2.70;80.15
76291;DHT22;65100;46.884;17.410;2024-01-16T05:31:24;-2.73;81.67
76291;DHT22;65100;46.884;17.410;2024-01-16T05:33:49;-2.80;81.22
76291;DHT22;65100;46.884;17.410;2024-01-16T05:36:15;-2.97;78.73
76291;DHT22;65100;46.884;17.410;2024-01-16T05:38:41;-3.20;79.97
76291;DHT22;65100;46.884;17.410;2024-01-16T05:41:06;-3.07;79.84
76291;DHT22;65100;46.884;17.410;2024-01-16T05:43:31;-2.99;80.74
76291;DHT22;65100;46.884;17.410;2024-01-16T05:45:57;-2.99;80.64
76291;DHT22;65100;46.884;17.410;2024-01-16T05:48:22;-3.08;82.65
76291;DHT22;65100;46.884;17.410;2024-01-16T05:50:48;-2.84;81.62
76291;DHT22;65100;46.884;17.410;2024-01-16T05:53:13;-2.91;80.73
76291;DHT22;65100;46.884;17.410;2024-01-16T05:55:39;-3.01;79.81
76291;DHT22;65100;46.884;17.410;2024-01-16T05:58:04;-2.99;80.57
76291;DHT22;65100;46.884;17.410;2024-01-16T06:00:30;-3.08;80.29
76291;DHT22;65100;46.884;17.410;2024-01-16T06:02:55;-2.98;79.20
76291;DHT22;65100;46.884;17.410;2024-01-16T06:05:21;-2.98;79.01
76291;DHT22;65100;46.884;17.410;2024-01-16T06:07:46;-2.89;79.39
76291;DHT22;65100;46.884;17.410;2024-01-16T06:10:12;-2.98;78.92
76291;DHT22;65100;46.884;17.410;2024-01-16T06:12:39;-2.98;78.74
76291;DHT22;65100;46.884;17.410;2024-01-16T06:15:05;-3.16;78.90
76291;DHT22;65100;46.884;17.410;2024-01-16T06:17:30;-3.19;77.71
76291;DHT22;65100;46.884;17.410;2024-01-16T06:19:56;-3.20;78.92
76291;DHT22;65100;46.884;17.410;2024-01-16T06:22:21;-2.97;78.13
76291;DHT22;65100;46.884;17.410;2024-01-16T06:24:46;-3.07;77.63
76291;DHT22;65100;46.884;17.410;2024-01-16T06:27:12;-3.28;76.17
76291;DHT22;65100;46.884;17.410;2024-01-16T06:29:44;-3.51;78.27
76291;DHT22;65100;46.884;17.410;2024-01-16T06:32:10;-3.52;78.93
76291;DHT22;65100;46.884;17.410;2024-01-16T06:34:36;-3.56;78.63
76291;DHT22;65100;46.884;17.410;2024-01-16T06:37:01;-3.35;79.30
76291;DHT22;65100;46.884;17.410;2024-01-16T06:39:27;-3.83;79.08
76291;DHT22;65100;46.884;17.410;2024-01-16T06:41:52;-3.83;79.79
76291;DHT22;65100;46.884;17.410;2024-01-16T06:44:18;-3.19;80.95
76291;DHT22;65100;46.884;17.410;2024-01-16T06:46:44;-3.25;77.93
76291;DHT22;65100;46.884;17.410;2024-01-16T06:49:10;-3.36;77.60
76291;DHT22;65100;46.884;17.410;2024-01-16T06:51:35;-3.53;80.45
76291;DHT22;65100;46.884;17.410;2024-01-16T06:54:00;-3.39;79.64
76291;DHT22;65100;46.884;17.410;2024-01-16T06:56:26;-3.19;77.19
76291;DHT22;65100;46.884;17.410;2024-01-16T06:58:54;-3.31;77.94
76291;DHT22;65100;46.884;17.410;2024-01-16T07:01:20;-3.02;77.60
76291;DHT22;65100;46.884;17.410;2024-01-16T07:03:45;-3.08;77.19
76291;DHT22;65100;46.884;17.410;2024-01-16T07:06:11;-3.15;78.27
76291;DHT22;65100;46.884;17.410;2024-01-16T07:08:37;-2.81;77.00
76291;DHT22;65100;46.884;17.410;2024-01-16T07:11:02;-2.70;76.43
76291;DHT22;65100;46.884;17.410;2024-01-16T07:13:28;-2.64;76.52
76291;DHT22;65100;46.884;17.410;2024-01-16T07:15:53;-2.85;78.33
76291;DHT22;65100;46.884;17.410;2024-01-16T07:18:19;-3.02;78.91
76291;DHT22;65100;46.884;17.410;2024-01-16T07:20:44;-2.44;78.40
76291;DHT22;65100;46.884;17.410;2024-01-16T07:23:11;-1.76;75.25
76291;DHT22;65100;46.884;17.410;2024-01-16T07:25:37;-1.66;75.54
76291;DHT22;65100;46.884;17.410;2024-01-16T07:28:02;-1.38;74.83
76291;DHT22;65100;46.884;17.410;2024-01-16T07:30:28;-1.15;74.43
76291;DHT22;65100;46.884;17.410;2024-01-16T07:32:53;-1.21;74.72
76291;DHT22;65100;46.884;17.410;2024-01-16T07:35:19;-1.22;75.09
76291;DHT22;65100;46.884;17.410;2024-01-16T07:37:44;-1.61;77.10
76291;DHT22;65100;46.884;17.410;2024-01-16T07:40:10;-1.22;76.48
76291;DHT22;65100;46.884;17.410;2024-01-16T07:42:37;-1.41;77.13
76291;DHT22;65100;46.884;17.410;2024-01-16T07:45:03;-1.32;78.64
76291;DHT22;65100;46.884;17.410;2024-01-16T07:47:32;-0.84;77.87
76291;DHT22;65100;46.884;17.410;2024-01-16T07:49:58;-0.54;77.26
76291;DHT22;65100;46.884;17.410;2024-01-16T07:52:24;-0.43;77.50
76291;DHT22;65100;46.884;17.410;2024-01-16T07:54:50;-0.10;77.20
76291;DHT22;65100;46.884;17.410;2024-01-16T07:57:16;0.59;76.07
76291;DHT22;65100;46.884;17.410;2024-01-16T07:59:41;1.36;73.44
76291;DHT22;65100;46.884;17.410;2024-01-16T08:02:07;1.65;72.94
76291;DHT22;65100;46.884;17.410;2024-01-16T08:04:33;2.08;71.72
76291;DHT22;65100;46.884;17.410;2024-01-16T08:06:59;2.01;72.88
76291;DHT22;65100;46.884;17.410;2024-01-16T08:09:24;1.84;74.13
76291;DHT22;65100;46.884;17.410;2024-01-16T08:11:50;1.33;76.04
76291;DHT22;65100;46.884;17.410;2024-01-16T08:14:15;1.26;80.97
76291;DHT22;65100;46.884;17.410;2024-01-16T08:16:41;1.23;82.62
76291;DHT22;65100;46.884;17.410;2024-01-16T08:19:06;1.36;83.44
76291;DHT22;65100;46.884;17.410;2024-01-16T08:21:32;1.62;82.69
76291;DHT22;65100;46.884;17.410;2024-01-16T08:23:58;1.68;82.00
76291;DHT22;65100;46.884;17.410;2024-01-16T08:26:24;2.02;81.33
76291;DHT22;65100;46.884;17.410;2024-01-16T08:28:49;1.75;81.51
76291;DHT22;65100;46.884;17.410;2024-01-16T08:31:19;1.78;82.95
76291;DHT22;65100;46.884;17.410;2024-01-16T08:33:45;2.42;81.12
76291;DHT22;65100;46.884;17.410;2024-01-16T08:36:11;2.36;81.52
76291;DHT22;65100;46.884;17.410;2024-01-16T08:38:37;2.30;80.45
76291;DHT22;65100;46.884;17.410;2024-01-16T08:41:02;2.16;81.01
76291;DHT22;65100;46.884;17.410;2024-01-16T08:43:32;2.08;81.17
76291;DHT22;65100;46.884;17.410;2024-01-16T08:45:57;1.89;82.34
76291;DHT22;65100;46.884;17.410;2024-01-16T08:48:23;1.97;83.11
76291;DHT22;65100;46.884;17.410;2024-01-16T08:50:48;1.77;82.42
76291;DHT22;65100;46.884;17.410;2024-01-16T08:53:14;1.77;84.20
76291;DHT22;65100;46.884;17.410;2024-01-16T08:55:39;2.15;81.43
76291;DHT22;65100;46.884;17.410;2024-01-16T08:58:04;2.26;82.13
76291;DHT22;65100;46.884;17.410;2024-01-16T09:00:30;2.18;80.71
76291;DHT22;65100;46.884;17.410;2024-01-16T09:02:58;2.32;81.97
76291;DHT22;65100;46.884;17.410;2024-01-16T09:05:24;2.12;81.67
76291;DHT22;65100;46.884;17.410;2024-01-16T09:07:51;2.19;82.80
76291;DHT22;65100;46.884;17.410;2024-01-16T09:10:18;2.15;81.14
76291;DHT22;65100;46.884;17.410;2024-01-16T09:12:43;2.30;82.33
76291;DHT22;65100;46.884;17.410;2024-01-16T09:15:09;2.30;81.48
76291;DHT22;65100;46.884;17.410;2024-01-16T09:17:35;2.53;82.38
76291;DHT22;65100;46.884;17.410;2024-01-16T09:20:00;2.39;81.80
76291;DHT22;65100;46.884;17.410;2024-01-16T09:22:26;2.32;82.31
76291;DHT22;65100;46.884;17.410;2024-01-16T09:24:52;2.01;82.47
76291;DHT22;65100;46.884;17.410;2024-01-16T09:27:17;2.18;84.00
76291;DHT22;65100;46.884;17.410;2024-01-16T09:29:43;2.50;81.96
76291;DHT22;65100;46.884;17.410;2024-01-16T09:32:08;2.59;83.17
76291;DHT22;65100;46.884;17.410;2024-01-16T09:34:34;2.64;82.13
76291;DHT22;65100;46.884;17.410;2024-01-16T09:36:59;2.75;81.91
76291;DHT22;65100;46.884;17.410;2024-01-16T09:39:28;2.99;81.42
76291;DHT22;65100;46.884;17.410;2024-01-16T09:41:56;3.13;83.87
76291;DHT22;65100;46.884;17.410;2024-01-16T09:44:25;2.56;81.21
76291;DHT22;65100;46.884;17.410;2024-01-16T09:46:51;2.94;83.30
76291;DHT22;65100;46.884;17.410;2024-01-16T09:49:18;2.59;80.44
76291;DHT22;65100;46.884;17.410;2024-01-16T09:51:43;2.60;82.44
76291;DHT22;65100;46.884;17.410;2024-01-16T09:54:09;2.59;83.79
76291;DHT22;65100;46.884;17.410;2024-01-16T09:56:40;2.59;83.26
76291;DHT22;65100;46.884;17.410;2024-01-16T09:59:08;2.77;82.37
76291;DHT22;65100;46.884;17.410;2024-01-16T10:01:35;2.21;82.00
76291;DHT22;65100;46.884;17.410;2024-01-16T10:04:01;2.16;82.39
76291;DHT22;65100;46.884;17.410;2024-01-16T10:06:27;2.16;82.39
76291;DHT22;65100;46.884;17.410;2024-01-16T10:08:56;2.40;82.65
76291;DHT22;65100;46.884;17.410;2024-01-16T10:11:21;2.56;83.77
76291;DHT22;65100;46.884;17.410;2024-01-16T10:13:47;2.73;80.61
76291;DHT22;65100;46.884;17.410;2024-01-16T10:16:13;2.75;80.94
76291;DHT22;65100;46.884;17.410;2024-01-16T10:18:38;2.73;82.51
76291;DHT22;65100;46.884;17.410;2024-01-16T10:21:04;2.90;80.78
76291;DHT22;65100;46.884;17.410;2024-01-16T10:23:31;2.76;78.65
76291;DHT22;65100;46.884;17.410;2024-01-16T10:28:36;3.01;79.78
76291;DHT22;65100;46.884;17.410;2024-01-16T10:31:08;3.11;80.20
76291;DHT22;65100;46.884;17.410;2024-01-16T10:33:34;3.31;78.68
76291;DHT22;65100;46.884;17.410;2024-01-16T10:36:14;3.27;76.65
76291;DHT22;65100;46.884;17.410;2024-01-16T10:38:42;3.26;77.33
76291;DHT22;65100;46.884;17.410;2024-01-16T10:41:16;3.45;78.95
76291;DHT22;65100;46.884;17.410;2024-01-16T10:43:42;3.42;75.02
76291;DHT22;65100;46.884;17.410;2024-01-16T10:46:16;3.77;77.99
76291;DHT22;65100;46.884;17.410;2024-01-16T10:49:01;3.81;75.54
76291;DHT22;65100;46.884;17.410;2024-01-16T10:51:29;3.51;78.39
76291;DHT22;65100;46.884;17.410;2024-01-16T10:54:05;3.64;79.76
76291;DHT22;65100;46.884;17.410;2024-01-16T10:56:31;3.81;79.59
76291;DHT22;65100;46.884;17.410;2024-01-16T11:01:37;3.58;78.20
76291;DHT22;65100;46.884;17.410;2024-01-16T11:04:04;3.32;80.80
76291;DHT22;65100;46.884;17.410;2024-01-16T11:06:30;3.27;79.52
76291;DHT22;65100;46.884;17.410;2024-01-16T11:08:57;3.38;82.00
76291;DHT22;65100;46.884;17.410;2024-01-16T11:11:24;3.20;82.93
76291;DHT22;65100;46.884;17.410;2024-01-16T11:13:50;3.47;82.08
76291;DHT22;65100;46.884;17.410;2024-01-16T11:16:16;3.27;80.66
76291;DHT22;65100;46.884;17.410;2024-01-16T11:18:42;3.50;81.05
76291;DHT22;65100;46.884;17.410;2024-01-16T11:21:10;3.20;80.69
76291;DHT22;65100;46.884;17.410;2024-01-16T11:23:37;3.52;81.02
76291;DHT22;65100;46.884;17.410;2024-01-16T11:28:49;3.64;82.28
76291;DHT22;65100;46.884;17.410;2024-01-16T11:31:28;3.77;81.76
76291;DHT22;65100;46.884;17.410;2024-01-16T11:33:55;3.71;80.37
76291;DHT22;65100;46.884;17.410;2024-01-16T11:36:52;3.54;80.98
76291;DHT22;65100;46.884;17.410;2024-01-16T11:39:22;3.82;80.82
76291;DHT22;65100;46.884;17.410;2024-01-16T11:41:49;3.79;80.63
76291;DHT22;65100;46.884;17.410;2024-01-16T11:44:39;3.95;83.38
76291;DHT22;65100;46.884;17.410;2024-01-16T11:47:05;3.91;79.36
76291;DHT22;65100;46.884;17.410;2024-01-16T11:49:32;3.81;78.68
76291;DHT22;65100;46.884;17.410;2024-01-16T11:52:00;3.72;79.46
76291;DHT22;65100;46.884;17.410;2024-01-16T11:54:26;3.94;79.91
76291;DHT22;65100;46.884;17.410;2024-01-16T11:57:01;3.88;80.05
76291;DHT22;65100;46.884;17.410;2024-01-16T12:02:23;3.83;78.27
76291;DHT22;65100;46.884;17.410;2024-01-16T12:04:53;3.58;78.18
76291;DHT22;65100;46.884;17.410;2024-01-16T12:07:20;3.96;79.01
76291;DHT22;65100;46.884;17.410;2024-01-16T12:09:46;4.02;79.09
76291;DHT22;65100;46.884;17.410;2024-01-16T12:12:15;4.17;78.01
76291;DHT22;65100;46.884;17.410;2024-01-16T12:14:40;4.12;79.43
76291;DHT22;65100;46.884;17.410;2024-01-16T12:17:12;4.36;79.58
76291;DHT22;65100;46.884;17.410;2024-01-16T12:19:38;4.30;77.79
76291;DHT22;65100;46.884;17.410;2024-01-16T12:22:10;4.05;76.81
76291;DHT22;65100;46.884;17.410;2024-01-16T12:24:38;4.29;78.76
76291;DHT22;65100;46.884;17.410;2024-01-16T12:27:04;4.40;77.30
76291;DHT22;65100;46.884;17.410;2024-01-16T12:29:30;4.54;76.84
76291;DHT22;65100;46.884;17.410;2024-01-16T12:32:09;4.67;76.75
76291;DHT22;65100;46.884;17.410;2024-01-16T12:34:35;4.69;76.10
76291;DHT22;65100;46.884;17.410;2024-01-16T12:37:09;4.70;77.02
76291;DHT22;65100;46.884;17.410;2024-01-16T12:39:35;4.63;78.87
76291;DHT22;65100;46.884;17.410;2024-01-16T12:42:01;4.56;78.40
76291;DHT22;65100;46.884;17.410;2024-01-16T12:44:28;4.63;78.88
76291;DHT22;65100;46.884;17.410;2024-01-16T12:46:54;4.70;75.43
76291;DHT22;65100;46.884;17.410;2024-01-16T12:49:20;4.61;75.49
76291;DHT22;65100;46.884;17.410;2024-01-16T12:51:46;4.47;76.09
76291;DHT22;65100;46.884;17.410;2024-01-16T12:54:15;4.36;76.35
76291;DHT22;65100;46.884;17.410;2024-01-16T12:56:41;3.98;76.90
76291;DHT22;65100;46.884;17.410;2024-01-16T12:59:10;4.36;78.71
76291;DHT22;65100;46.884;17.410;2024-01-16T13:01:40;4.10;77.16
76291;DHT22;65100;46.884;17.410;2024-01-16T13:04:12;4.05;79.60
76291;DHT22;65100;46.884;17.410;2024-01-16T13:06:41;4.26;79.70
76291;DHT22;65100;46.884;17.410;2024-01-16T13:09:11;4.10;78.95
76291;DHT22;65100;46.884;17.410;2024-01-16T13:11:53;4.20;79.39
76291;DHT22;65100;46.884;17.410;2024-01-16T13:14:23;3.77;79.10
76291;DHT22;65100;46.884;17.410;2024-01-16T13:16:51;3.71;82.07
76291;DHT22;65100;46.884;17.410;2024-01-16T13:19:19;3.86;79.93
76291;DHT22;65100;46.884;17.410;2024-01-16T13:21:45;3.95;81.46
76291;DHT22;65100;46.884;17.410;2024-01-16T13:24:11;3.78;81.35
76291;DHT22;65100;46.884;17.410;2024-01-16T13:26:38;4.01;85.02
76291;DHT22;65100;46.884;17.410;2024-01-16T13:29:03;4.01;84.02
76291;DHT22;65100;46.884;17.410;2024-01-16T13:31:29;4.16;83.88
76291;DHT22;65100;46.884;17.410;2024-01-16T13:33:54;4.19;81.27
76291;DHT22;65100;46.884;17.410;2024-01-16T13:36:21;3.55;78.47
76291;DHT22;65100;46.884;17.410;2024-01-16T13:38:48;3.47;78.15
76291;DHT22;65100;46.884;17.410;2024-01-16T13:41:16;3.16;78.57
76291;DHT22;65100;46.884;17.410;2024-01-16T13:43:42;3.08;79.23
76291;DHT22;65100;46.884;17.410;2024-01-16T13:46:08;2.97;80.42
76291;DHT22;65100;46.884;17.410;2024-01-16T13:48:38;2.77;81.45
76291;DHT22;65100;46.884;17.410;2024-01-16T13:51:06;3.11;85.49
76291;DHT22;65100;46.884;17.410;2024-01-16T13:53:35;3.11;85.35
76291;DHT22;65100;46.884;17.410;2024-01-16T13:56:01;3.06;86.24
76291;DHT22;65100;46.884;17.410;2024-01-16T13:58:26;3.13;83.24
76291;DHT22;65100;46.884;17.410;2024-01-16T14:00:52;3.30;85.31
76291;DHT22;65100;46.884;17.410;2024-01-16T14:03:19;3.39;85.01
76291;DHT22;65100;46.884;17.410;2024-01-16T14:05:46;3.41;84.34
76291;DHT22;65100;46.884;17.410;2024-01-16T14:08:11;3.38;84.29
76291;DHT22;65100;46.884;17.410;2024-01-16T14:10:38;3.31;84.09
76291;DHT22;65100;46.884;17.410;2024-01-16T14:13:04;2.93;83.29
76291;DHT22;65100;46.884;17.410;2024-01-16T14:15:30;2.94;83.92
76291;DHT22;65100;46.884;17.410;2024-01-16T14:17:56;2.97;85.36
76291;DHT22;65100;46.884;17.410;2024-01-16T14:20:24;3.20;85.05
76291;DHT22;65100;46.884;17.410;2024-01-16T14:22:52;2.92;80.96
76291;DHT22;65100;46.884;17.410;2024-01-16T14:25:18;2.73;80.97
76291;DHT22;65100;46.884;17.410;2024-01-16T14:27:47;2.80;82.45
76291;DHT22;65100;46.884;17.410;2024-01-16T14:30:15;2.82;82.82
76291;DHT22;65100;46.884;17.410;2024-01-16T14:32:42;2.77;81.85
76291;DHT22;65100;46.884;17.410;2024-01-16T14:35:09;2.96;83.16
76291;DHT22;65100;46.884;17.410;2024-01-16T14:37:38;2.77;83.23
76291;DHT22;65100;46.884;17.410;2024-01-16T14:40:05;2.76;85.43
76291;DHT22;65100;46.884;17.410;2024-01-16T14:42:43;3.04;83.79
76291;DHT22;65100;46.884;17.410;2024-01-16T14:45:10;2.90;84.00
76291;DHT22;65100;46.884;17.410;2024-01-16T14:47:37;3.11;84.63
76291;DHT22;65100;46.884;17.410;2024-01-16T14:50:44;3.31;85.31
76291;DHT22;65100;46.884;17.410;2024-01-16T14:53:11;3.26;84.13
76291;DHT22;65100;46.884;17.410;2024-01-16T14:55:36;3.37;85.00
76291;DHT22;65100;46.884;17.410;2024-01-16T14:58:03;3.39;84.68
76291;DHT22;65100;46.884;17.410;2024-01-16T15:00:28;3.11;85.28
76291;DHT22;65100;46.884;17.410;2024-01-16T15:02:55;2.99;86.56
76291;DHT22;65100;46.884;17.410;2024-01-16T15:05:22;2.76;83.16
76291;DHT22;65100;46.884;17.410;2024-01-16T15:07:49;2.82;86.43
76291;DHT22;65100;46.884;17.410;2024-01-16T15:10:16;2.87;84.82
76291;DHT22;65100;46.884;17.410;2024-01-16T15:12:42;2.57;82.94
76291;DHT22;65100;46.884;17.410;2024-01-16T15:15:10;2.92;84.39
76291;DHT22;65100;46.884;17.410;2024-01-16T15:17:37;2.94;85.13
76291;DHT22;65100;46.884;17.410;2024-01-16T15:20:03;2.86;84.31
76291;DHT22;65100;46.884;17.410;2024-01-16T15:22:40;2.57;83.81
76291;DHT22;65100;46.884;17.410;2024-01-16T15:25:06;2.63;85.20
76291;DHT22;65100;46.884;17.410;2024-01-16T15:27:32;2.77;83.79
76291;DHT22;65100;46.884;17.410;2024-01-16T15:29:58;2.24;83.15
76291;DHT22;65100;46.884;17.410;2024-01-16T15:32:25;1.91;83.44
76291;DHT22;65100;46.884;17.410;2024-01-16T15:34:50;1.68;84.27